sensor_id;sensor_type;location;lat;lon;timestamp;temperature;humidity
34574;DHT22;20809;49.594;8.734;2022-07-29T00:00:21;21.50;88.10
34574;DHT22;20809;49.594;8.734;2022-07-29T00:03:22;21.30;88.30
34574;DHT22;20809;49.594;8.734;2022-07-29T00:06:23;21.30;89.60
34574;DHT22;20809;49.594;8.734;2022-07-29T00:09:24;21.10;90.10
34574;DHT22;20809;49.594;8.734;2022-07-29T00:12:25;21.00;90.40
34574;DHT22;20809;49.594;8.734;2022-07-29T00:15:26;20.90;90.60
34574;DHT22;20809;49.594;8.734;2022-07-29T00:18:26;20.90;90.90
34574;DHT22;20809;49.594;8.734;2022-07-29T00:21:27;20.80;90.80
34574;DHT22;20809;49.594;8.734;2022-07-29T00:24:28;20.70;91.20
34574;DHT22;20809;49.594;8.734;2022-07-29T00:27:29;20.50;91.70
34574;DHT22;20809;49.594;8.734;2022-07-29T00:30:29;20.40;91.70
34574;DHT22;20809;49.594;8.734;2022-07-29T00:33:30;20.40;91.00
34574;DHT22;20809;49.594;8.734;2022-07-29T00:36:31;20.40;91.10
34574;DHT22;20809;49.594;8.734;2022-07-29T00:39:32;20.20;91.30
34574;DHT22;20809;49.594;8.734;2022-07-29T00:42:47;20.10;91.00
34574;DHT22;20809;49.594;8.734;2022-07-29T00:45:48;20.10;90.90
34574;DHT22;20809;49.594;8.734;2022-07-29T00:48:49;20.00;90.80
34574;DHT22;20809;49.594;8.734;2022-07-29T00:51:50;20.00;91.30
34574;DHT22;20809;49.594;8.734;2022-07-29T00:54:51;20.00;91.90
34574;DHT22;20809;49.594;8.734;2022-07-29T00:59:17;19.90;92.80
34574;DHT22;20809;49.594;8.734;2022-07-29T01:02:20;19.80;93.70
34574;DHT22;20809;49.594;8.734;2022-07-29T01:05:23;19.60;94.00
34574;DHT22;20809;49.594;8.734;2022-07-29T01:08:27;19.60;93.50
34574;DHT22;20809;49.594;8.734;2022-07-29T01:11:28;19.50;93.60
34574;DHT22;20809;49.594;8.734;2022-07-29T01:14:31;19.50;93.00
34574;DHT22;20809;49.594;8.734;2022-07-29T01:31:02;19.70;92.80
34574;DHT22;20809;49.594;8.734;2022-07-29T01:34:05;19.60;92.80
34574;DHT22;20809;49.594;8.734;2022-07-29T01:37:12;19.60;93.50
34574;DHT22;20809;49.594;8.734;2022-07-29T01:40:31;19.50;94.70
34574;DHT22;20809;49.594;8.734;2022-07-29T01:43:47;19.40;95.50
34574;DHT22;20809;49.594;8.734;2022-07-29T01:46:53;19.20;95.80
34574;DHT22;20809;49.594;8.734;2022-07-29T01:49:58;18.90;96.40
34574;DHT22;20809;49.594;8.734;2022-07-29T01:53:05;18.80;96.80
34574;DHT22;20809;49.594;8.734;2022-07-29T01:56:12;18.80;96.80
34574;DHT22;20809;49.594;8.734;2022-07-29T01:59:17;18.80;96.60
34574;DHT22;20809;49.594;8.734;2022-07-29T02:02:22;18.80;96.60
34574;DHT22;20809;49.594;8.734;2022-07-29T02:05:24;18.80;96.50
34574;DHT22;20809;49.594;8.734;2022-07-29T02:08:28;18.80;96.60
34574;DHT22;20809;49.594;8.734;2022-07-29T02:11:33;18.80;96.70
34574;DHT22;20809;49.594;8.734;2022-07-29T02:14:38;18.80;97.10
34574;DHT22;20809;49.594;8.734;2022-07-29T02:17:53;18.80;97.40
34574;DHT22;20809;49.594;8.734;2022-07-29T02:20:56;18.80;97.30
34574;DHT22;20809;49.594;8.734;2022-07-29T02:24:00;18.80;97.10
34574;DHT22;20809;49.594;8.734;2022-07-29T02:27:02;18.80;97.30
34574;DHT22;20809;49.594;8.734;2022-07-29T02:30:08;18.70;97.70
34574;DHT22;20809;49.594;8.734;2022-07-29T02:33:20;18.70;98.40
34574;DHT22;20809;49.594;8.734;2022-07-29T02:36:22;18.60;99.00
34574;DHT22;20809;49.594;8.734;2022-07-29T02:39:28;18.40;99.70
34574;DHT22;20809;49.594;8.734;2022-07-29T02:42:31;18.30;99.90
34574;DHT22;20809;49.594;8.734;2022-07-29T02:45:33;18.30;99.90
34574;DHT22;20809;49.594;8.734;2022-07-29T02:48:38;18.40;99.90
34574;DHT22;20809;49.594;8.734;2022-07-29T02:51:52;18.30;99.90
34574;DHT22;20809;49.594;8.734;2022-07-29T02:55:02;18.30;99.90
34574;DHT22;20809;49.594;8.734;2022-07-29T02:58:27;18.30;99.90
34574;DHT22;20809;49.594;8.734;2022-07-29T03:01:31;18.30;99.90
34574;DHT22;20809;49.594;8.734;2022-07-29T03:04:33;18.30;99.90
34574;DHT22;20809;49.594;8.734;2022-07-29T03:07:36;18.20;99.90
34574;DHT22;20809;49.594;8.734;2022-07-29T03:10:43;18.20;99.90
34574;DHT22;20809;49.594;8.734;2022-07-29T03:13:47;18.20;99.90
34574;DHT22;20809;49.594;8.734;2022-07-29T03:16:49;18.20;99.90
34574;DHT22;20809;49.594;8.734;2022-07-29T03:19:51;18.20;99.90
34574;DHT22;20809;49.594;8.734;2022-07-29T03:22:52;18.20;99.90
34574;DHT22;20809;49.594;8.734;2022-07-29T03:25:53;18.20;99.90
34574;DHT22;20809;49.594;8.734;2022-07-29T03:28:54;18.20;99.90
34574;DHT22;20809;49.594;8.734;2022-07-29T03:31:58;18.10;99.90
34574;DHT22;20809;49.594;8.734;2022-07-29T03:35:08;18.20;99.90
34574;DHT22;20809;49.594;8.734;2022-07-29T03:38:14;18.20;99.90
34574;DHT22;20809;49.594;8.734;2022-07-29T03:41:16;18.30;99.90
34574;DHT22;20809;49.594;8.734;2022-07-29T03:44:20;18.30;99.90
34574;DHT22;20809;49.594;8.734;2022-07-29T03:47:25;18.40;99.90
34574;DHT22;20809;49.594;8.734;2022-07-29T03:50:34;18.40;99.90
34574;DHT22;20809;49.594;8.734;2022-07-29T03:53:35;18.50;99.90
34574;DHT22;20809;49.594;8.734;2022-07-29T03:56:45;18.50;99.90
34574;DHT22;20809;49.594;8.734;2022-07-29T03:59:51;18.50;99.90
34574;DHT22;20809;49.594;8.734;2022-07-29T04:02:52;18.50;99.90
34574;DHT22;20809;49.594;8.734;2022-07-29T04:06:19;18.40;99.90
34574;DHT22;20809;49.594;8.734;2022-07-29T04:09:23;18.40;99.90
34574;DHT22;20809;49.594;8.734;2022-07-29T04:12:29;18.30;99.90
34574;DHT22;20809;49.594;8.734;2022-07-29T04:15:29;18.30;99.90
34574;DHT22;20809;49.594;8.734;2022-07-29T04:18:30;18.30;99.90
34574;DHT22;20809;49.594;8.734;2022-07-29T04:21:40;18.30;99.90
34574;DHT22;20809;49.594;8.734;2022-07-29T04:24:41;18.20;99.90
34574;DHT22;20809;49.594;8.734;2022-07-29T04:27:41;18.20;99.90
34574;DHT22;20809;49.594;8.734;2022-07-29T04:31:00;18.30;99.90
34574;DHT22;20809;49.594;8.734;2022-07-29T04:34:07;18.30;99.90
34574;DHT22;20809;49.594;8.734;2022-07-29T04:37:15;18.20;99.90
34574;DHT22;20809;49.594;8.734;2022-07-29T04:40:19;18.20;99.90
34574;DHT22;20809;49.594;8.734;2022-07-29T04:43:20;18.20;99.90
34574;DHT22;20809;49.594;8.734;2022-07-29T04:46:21;18.30;99.90
34574;DHT22;20809;49.594;8.734;2022-07-29T04:49:25;18.40;99.90
34574;DHT22;20809;49.594;8.734;2022-07-29T04:52:29;18.40;99.90
34574;DHT22;20809;49.594;8.734;2022-07-29T04:55:39;18.60;99.90
34574;DHT22;20809;49.594;8.734;2022-07-29T04:58:40;18.70;99.90
34574;DHT22;20809;49.594;8.734;2022-07-29T05:01:41;18.80;99.90
34574;DHT22;20809;49.594;8.734;2022-07-29T05:04:42;19.00;99.90
34574;DHT22;20809;49.594;8.734;2022-07-29T05:07:45;19.10;99.90
34574;DHT22;20809;49.594;8.734;2022-07-29T05:10:46;19.20;99.90
34574;DHT22;20809;49.594;8.734;2022-07-29T05:13:47;19.40;99.90
34574;DHT22;20809;49.594;8.734;2022-07-29T05:16:51;19.50;99.90
34574;DHT22;20809;49.594;8.734;2022-07-29T05:19:51;19.60;99.90
34574;DHT22;20809;49.594;8.734;2022-07-29T05:22:52;19.70;99.90
34574;DHT22;20809;49.594;8.734;2022-07-29T05:25:53;19.70;99.90
34574;DHT22;20809;49.594;8.734;2022-07-29T05:28:59;19.70;99.90
34574;DHT22;20809;49.594;8.734;2022-07-29T05:32:00;19.70;99.90
34574;DHT22;20809;49.594;8.734;2022-07-29T05:35:01;19.80;99.90
34574;DHT22;20809;49.594;8.734;2022-07-29T05:38:03;20.00;99.90
34574;DHT22;20809;49.594;8.734;2022-07-29T05:41:05;20.30;99.90
34574;DHT22;20809;49.594;8.734;2022-07-29T05:44:10;20.60;99.90
34574;DHT22;20809;49.594;8.734;2022-07-29T05:47:13;20.80;99.90
34574;DHT22;20809;49.594;8.734;2022-07-29T05:50:14;21.10;99.90
34574;DHT22;20809;49.594;8.734;2022-07-29T05:53:15;21.40;99.90
34574;DHT22;20809;49.594;8.734;2022-07-29T05:56:16;21.80;99.90
34574;DHT22;20809;49.594;8.734;2022-07-29T05:59:17;22.20;99.80
34574;DHT22;20809;49.594;8.734;2022-07-29T06:02:18;22.50;97.60
34574;DHT22;20809;49.594;8.734;2022-07-29T06:05:19;22.60;96.70
34574;DHT22;20809;49.594;8.734;2022-07-29T06:08:20;22.70;96.20
34574;DHT22;20809;49.594;8.734;2022-07-29T06:11:21;22.60;96.80
34574;DHT22;20809;49.594;8.734;2022-07-29T06:14:22;22.50;96.60
34574;DHT22;20809;49.594;8.734;2022-07-29T06:17:35;22.40;96.60
34574;DHT22;20809;49.594;8.734;2022-07-29T06:20:36;22.20;97.10
34574;DHT22;20809;49.594;8.734;2022-07-29T06:23:37;22.10;98.10
34574;DHT22;20809;49.594;8.734;2022-07-29T06:26:39;22.30;97.80
34574;DHT22;20809;49.594;8.734;2022-07-29T06:29:40;22.30;98.00
34574;DHT22;20809;49.594;8.734;2022-07-29T06:32:41;22.30;98.30
34574;DHT22;20809;49.594;8.734;2022-07-29T06:35:42;22.50;98.20
34574;DHT22;20809;49.594;8.734;2022-07-29T06:38:43;22.80;97.30
34574;DHT22;20809;49.594;8.734;2022-07-29T06:41:47;23.30;97.00
34574;DHT22;20809;49.594;8.734;2022-07-29T06:44:48;23.70;96.20
34574;DHT22;20809;49.594;8.734;2022-07-29T06:47:49;23.70;96.60
34574;DHT22;20809;49.594;8.734;2022-07-29T06:50:50;24.00;96.00
34574;DHT22;20809;49.594;8.734;2022-07-29T06:53:52;24.30;95.00
34574;DHT22;20809;49.594;8.734;2022-07-29T06:56:52;24.90;94.70
34574;DHT22;20809;49.594;8.734;2022-07-29T06:59:55;25.20;93.90
34574;DHT22;20809;49.594;8.734;2022-07-29T07:02:56;25.40;93.70
34574;DHT22;20809;49.594;8.734;2022-07-29T07:06:03;25.70;93.90
34574;DHT22;20809;49.594;8.734;2022-07-29T07:09:04;25.70;92.80
34574;DHT22;20809;49.594;8.734;2022-07-29T07:12:05;25.80;93.30
34574;DHT22;20809;49.594;8.734;2022-07-29T07:15:06;25.80;93.20
34574;DHT22;20809;49.594;8.734;2022-07-29T07:18:13;25.70;93.30
34574;DHT22;20809;49.594;8.734;2022-07-29T07:21:23;25.80;93.90
34574;DHT22;20809;49.594;8.734;2022-07-29T07:24:24;26.00;93.90
34574;DHT22;20809;49.594;8.734;2022-07-29T07:27:25;26.40;93.30
34574;DHT22;20809;49.594;8.734;2022-07-29T07:30:27;26.80;93.20
34574;DHT22;20809;49.594;8.734;2022-07-29T07:33:31;27.20;93.30
34574;DHT22;20809;49.594;8.734;2022-07-29T07:36:35;27.40;93.30
34574;DHT22;20809;49.594;8.734;2022-07-29T07:39:44;27.70;93.00
34574;DHT22;20809;49.594;8.734;2022-07-29T07:42:45;27.70;93.20
34574;DHT22;20809;49.594;8.734;2022-07-29T07:45:45;27.60;93.60
34574;DHT22;20809;49.594;8.734;2022-07-29T07:48:49;27.70;93.90
34574;DHT22;20809;49.594;8.734;2022-07-29T07:51:50;27.90;93.80
34574;DHT22;20809;49.594;8.734;2022-07-29T07:54:53;28.20;93.40
34574;DHT22;20809;49.594;8.734;2022-07-29T07:58:02;28.60;93.20
34574;DHT22;20809;49.594;8.734;2022-07-29T08:01:13;29.10;92.30
34574;DHT22;20809;49.594;8.734;2022-07-29T08:04:19;29.20;92.40
34574;DHT22;20809;49.594;8.734;2022-07-29T08:07:20;29.20;91.90
34574;DHT22;20809;49.594;8.734;2022-07-29T08:10:20;29.00;92.10
34574;DHT22;20809;49.594;8.734;2022-07-29T08:13:53;28.70;92.40
34574;DHT22;20809;49.594;8.734;2022-07-29T08:16:54;28.40;92.80
34574;DHT22;20809;49.594;8.734;2022-07-29T08:19:58;28.30;93.10
34574;DHT22;20809;49.594;8.734;2022-07-29T08:22:59;28.30;93.20
34574;DHT22;20809;49.594;8.734;2022-07-29T08:26:04;28.30;92.80
34574;DHT22;20809;49.594;8.734;2022-07-29T08:29:11;28.40;93.00
34574;DHT22;20809;49.594;8.734;2022-07-29T08:32:15;28.40;93.00
34574;DHT22;20809;49.594;8.734;2022-07-29T08:35:22;28.40;92.80
34574;DHT22;20809;49.594;8.734;2022-07-29T08:38:30;28.20;93.30
34574;DHT22;20809;49.594;8.734;2022-07-29T08:41:33;28.10;93.80
34574;DHT22;20809;49.594;8.734;2022-07-29T08:44:34;28.20;93.70
34574;DHT22;20809;49.594;8.734;2022-07-29T08:47:44;28.50;93.50
34574;DHT22;20809;49.594;8.734;2022-07-29T08:51:03;28.80;93.30
34574;DHT22;20809;49.594;8.734;2022-07-29T08:54:09;29.50;92.80
34574;DHT22;20809;49.594;8.734;2022-07-29T08:57:28;30.40;91.50
34574;DHT22;20809;49.594;8.734;2022-07-29T09:00:33;31.50;90.00
34574;DHT22;20809;49.594;8.734;2022-07-29T09:03:42;31.70;88.30
34574;DHT22;20809;49.594;8.734;2022-07-29T09:06:49;31.60;88.30
34574;DHT22;20809;49.594;8.734;2022-07-29T09:09:51;31.50;88.30
34574;DHT22;20809;49.594;8.734;2022-07-29T09:12:55;31.80;87.20
34574;DHT22;20809;49.594;8.734;2022-07-29T09:16:01;32.40;86.00
34574;DHT22;20809;49.594;8.734;2022-07-29T09:19:26;32.70;85.10
34574;DHT22;20809;49.594;8.734;2022-07-29T09:22:30;33.50;82.80
34574;DHT22;20809;49.594;8.734;2022-07-29T09:25:46;33.80;80.60
34574;DHT22;20809;49.594;8.734;2022-07-29T09:28:47;33.30;79.30
34574;DHT22;20809;49.594;8.734;2022-07-29T09:31:52;32.20;82.20
34574;DHT22;20809;49.594;8.734;2022-07-29T09:38:58;31.90;82.60
34574;DHT22;20809;49.594;8.734;2022-07-29T09:42:03;31.80;83.50
34574;DHT22;20809;49.594;8.734;2022-07-29T09:45:31;32.10;82.00
34574;DHT22;20809;49.594;8.734;2022-07-29T09:49:03;32.40;80.70
34574;DHT22;20809;49.594;8.734;2022-07-29T09:52:12;32.10;81.00
34574;DHT22;20809;49.594;8.734;2022-07-29T09:55:21;31.50;82.00
34574;DHT22;20809;49.594;8.734;2022-07-29T09:58:22;31.30;82.50
34574;DHT22;20809;49.594;8.734;2022-07-29T10:01:31;31.20;82.50
34574;DHT22;20809;49.594;8.734;2022-07-29T10:04:58;30.90;83.20
34574;DHT22;20809;49.594;8.734;2022-07-29T10:17:35;31.20;82.90
34574;DHT22;20809;49.594;8.734;2022-07-29T10:20:40;31.10;83.00
34574;DHT22;20809;49.594;8.734;2022-07-29T10:23:52;30.60;84.30
34574;DHT22;20809;49.594;8.734;2022-07-29T10:27:13;30.50;84.50
34574;DHT22;20809;49.594;8.734;2022-07-29T10:30:19;30.50;84.30
34574;DHT22;20809;49.594;8.734;2022-07-29T10:44:51;31.30;83.10
34574;DHT22;20809;49.594;8.734;2022-07-29T10:48:09;31.70;81.70
34574;DHT22;20809;49.594;8.734;2022-07-29T10:52:12;31.90;79.90
34574;DHT22;20809;49.594;8.734;2022-07-29T10:55:38;31.70;80.40
34574;DHT22;20809;49.594;8.734;2022-07-29T11:09:37;32.40;78.40
34574;DHT22;20809;49.594;8.734;2022-07-29T11:16:10;32.60;77.90
34574;DHT22;20809;49.594;8.734;2022-07-29T11:19:25;33.00;76.60
34574;DHT22;20809;49.594;8.734;2022-07-29T11:22:36;32.90;75.80
34574;DHT22;20809;49.594;8.734;2022-07-29T11:26:12;32.50;76.10
34574;DHT22;20809;49.594;8.734;2022-07-29T11:29:18;32.10;76.30
34574;DHT22;20809;49.594;8.734;2022-07-29T11:32:24;31.70;77.20
34574;DHT22;20809;49.594;8.734;2022-07-29T11:35:26;31.20;78.20
34574;DHT22;20809;49.594;8.734;2022-07-29T11:38:32;31.10;78.50
34574;DHT22;20809;49.594;8.734;2022-07-29T11:45:45;31.50;78.80
34574;DHT22;20809;49.594;8.734;2022-07-29T11:49:29;32.10;77.60
34574;DHT22;20809;49.594;8.734;2022-07-29T11:52:47;32.80;77.50
34574;DHT22;20809;49.594;8.734;2022-07-29T11:55:55;33.30;74.80
34574;DHT22;20809;49.594;8.734;2022-07-29T11:59:08;33.70;74.40
34574;DHT22;20809;49.594;8.734;2022-07-29T12:02:42;34.10;73.30
34574;DHT22;20809;49.594;8.734;2022-07-29T12:05:44;34.00;71.90
34574;DHT22;20809;49.594;8.734;2022-07-29T12:08:45;33.70;72.70
34574;DHT22;20809;49.594;8.734;2022-07-29T12:11:48;33.80;73.20
34574;DHT22;20809;49.594;8.734;2022-07-29T12:15:14;33.90;72.40
34574;DHT22;20809;49.594;8.734;2022-07-29T12:18:17;34.10;71.10
34574;DHT22;20809;49.594;8.734;2022-07-29T12:21:18;33.90;72.10
34574;DHT22;20809;49.594;8.734;2022-07-29T12:24:24;33.70;72.90
34574;DHT22;20809;49.594;8.734;2022-07-29T12:27:25;33.60;72.00
34574;DHT22;20809;49.594;8.734;2022-07-29T12:30:55;33.60;71.70
34574;DHT22;20809;49.594;8.734;2022-07-29T12:34:01;33.80;70.80
34574;DHT22;20809;49.594;8.734;2022-07-29T12:37:02;33.70;71.20
34574;DHT22;20809;49.594;8.734;2022-07-29T12:40:24;33.60;72.10
34574;DHT22;20809;49.594;8.734;2022-07-29T12:43:30;33.70;70.90
34574;DHT22;20809;49.594;8.734;2022-07-29T12:46:34;33.70;69.80
34574;DHT22;20809;49.594;8.734;2022-07-29T12:49:49;33.70;71.00
34574;DHT22;20809;49.594;8.734;2022-07-29T12:53:13;34.00;68.80
34574;DHT22;20809;49.594;8.734;2022-07-29T12:56:17;34.50;67.40
34574;DHT22;20809;49.594;8.734;2022-07-29T12:59:31;35.10;66.40
34574;DHT22;20809;49.594;8.734;2022-07-29T13:02:42;35.40;67.60
34574;DHT22;20809;49.594;8.734;2022-07-29T13:05:44;35.20;66.60
34574;DHT22;20809;49.594;8.734;2022-07-29T13:12:07;34.80;65.90
34574;DHT22;20809;49.594;8.734;2022-07-29T13:15:16;34.60;65.40
34574;DHT22;20809;49.594;8.734;2022-07-29T13:18:42;34.80;64.30
34574;DHT22;20809;49.594;8.734;2022-07-29T13:21:47;34.80;63.90
34574;DHT22;20809;49.594;8.734;2022-07-29T13:25:25;34.60;65.20
34574;DHT22;20809;49.594;8.734;2022-07-29T13:28:44;34.50;65.00
34574;DHT22;20809;49.594;8.734;2022-07-29T13:31:54;33.90;65.80
34574;DHT22;20809;49.594;8.734;2022-07-29T13:35:07;33.70;66.40
34574;DHT22;20809;49.594;8.734;2022-07-29T13:38:14;33.50;66.40
34574;DHT22;20809;49.594;8.734;2022-07-29T13:41:18;33.40;66.90
34574;DHT22;20809;49.594;8.734;2022-07-29T13:44:20;33.00;66.00
34574;DHT22;20809;49.594;8.734;2022-07-29T13:47:29;32.80;67.60
34574;DHT22;20809;49.594;8.734;2022-07-29T13:50:32;32.80;67.20
34574;DHT22;20809;49.594;8.734;2022-07-29T13:53:33;32.60;67.80
34574;DHT22;20809;49.594;8.734;2022-07-29T13:56:33;32.60;68.00
34574;DHT22;20809;49.594;8.734;2022-07-29T13:59:34;32.80;67.40
34574;DHT22;20809;49.594;8.734;2022-07-29T14:02:35;33.00;66.80
34574;DHT22;20809;49.594;8.734;2022-07-29T14:05:40;33.40;67.00
34574;DHT22;20809;49.594;8.734;2022-07-29T14:08:41;33.50;63.50
34574;DHT22;20809;49.594;8.734;2022-07-29T14:11:45;33.50;63.90
34574;DHT22;20809;49.594;8.734;2022-07-29T14:15:00;33.80;62.50
34574;DHT22;20809;49.594;8.734;2022-07-29T14:18:04;34.10;60.50
34574;DHT22;20809;49.594;8.734;2022-07-29T14:21:07;34.30;59.80
34574;DHT22;20809;49.594;8.734;2022-07-29T14:24:08;34.60;59.70
34574;DHT22;20809;49.594;8.734;2022-07-29T14:27:09;34.80;59.10
34574;DHT22;20809;49.594;8.734;2022-07-29T14:30:13;34.70;59.10
34574;DHT22;20809;49.594;8.734;2022-07-29T14:33:32;34.60;59.40
34574;DHT22;20809;49.594;8.734;2022-07-29T14:36:36;34.40;59.70
34574;DHT22;20809;49.594;8.734;2022-07-29T14:39:37;34.20;59.60
34574;DHT22;20809;49.594;8.734;2022-07-29T14:42:40;34.10;61.00
34574;DHT22;20809;49.594;8.734;2022-07-29T14:45:59;33.80;60.80
34574;DHT22;20809;49.594;8.734;2022-07-29T15:45:15;30.80;64.70
34574;DHT22;20809;49.594;8.734;2022-07-29T15:48:29;30.50;66.00
34574;DHT22;20809;49.594;8.734;2022-07-29T15:51:48;30.40;66.40
34574;DHT22;20809;49.594;8.734;2022-07-29T15:55:09;30.30;67.00
34574;DHT22;20809;49.594;8.734;2022-07-29T15:58:15;30.40;66.90
34574;DHT22;20809;49.594;8.734;2022-07-29T16:01:25;30.50;66.10
34574;DHT22;20809;49.594;8.734;2022-07-29T16:04:51;30.30;67.40
34574;DHT22;20809;49.594;8.734;2022-07-29T16:07:57;30.20;67.60
34574;DHT22;20809;49.594;8.734;2022-07-29T16:11:05;30.00;67.40
34574;DHT22;20809;49.594;8.734;2022-07-29T16:14:21;29.50;68.00
34574;DHT22;20809;49.594;8.734;2022-07-29T16:17:28;28.50;74.50
34574;DHT22;20809;49.594;8.734;2022-07-29T16:20:29;27.10;80.70
34574;DHT22;20809;49.594;8.734;2022-07-29T16:23:30;25.70;90.20
34574;DHT22;20809;49.594;8.734;2022-07-29T16:26:32;24.40;95.00
34574;DHT22;20809;49.594;8.734;2022-07-29T16:29:33;23.60;99.90
34574;DHT22;20809;49.594;8.734;2022-07-29T16:32:36;23.00;99.90
34574;DHT22;20809;49.594;8.734;2022-07-29T16:35:40;22.70;99.90
34574;DHT22;20809;49.594;8.734;2022-07-29T16:38:40;22.70;99.90
34574;DHT22;20809;49.594;8.734;2022-07-29T16:41:44;22.60;99.90
34574;DHT22;20809;49.594;8.734;2022-07-29T16:44:48;22.60;99.90
34574;DHT22;20809;49.594;8.734;2022-07-29T16:48:23;22.40;99.90
34574;DHT22;20809;49.594;8.734;2022-07-29T16:51:28;21.40;99.90
34574;DHT22;20809;49.594;8.734;2022-07-29T16:54:29;20.80;99.90
34574;DHT22;20809;49.594;8.734;2022-07-29T16:57:39;20.20;99.90
34574;DHT22;20809;49.594;8.734;2022-07-29T17:04:03;19.50;99.90
34574;DHT22;20809;49.594;8.734;2022-07-29T17:16:40;20.00;99.90
34574;DHT22;20809;49.594;8.734;2022-07-29T17:19:40;20.30;99.90
34574;DHT22;20809;49.594;8.734;2022-07-29T17:22:42;20.60;99.90
34574;DHT22;20809;49.594;8.734;2022-07-29T17:25:46;20.80;99.90
34574;DHT22;20809;49.594;8.734;2022-07-29T17:28:46;20.80;99.90
34574;DHT22;20809;49.594;8.734;2022-07-29T17:31:51;20.40;99.90
34574;DHT22;20809;49.594;8.734;2022-07-29T17:34:52;20.40;99.90
34574;DHT22;20809;49.594;8.734;2022-07-29T17:37:53;20.40;99.90
34574;DHT22;20809;49.594;8.734;2022-07-29T17:40:57;20.60;99.90
34574;DHT22;20809;49.594;8.734;2022-07-29T17:43:59;20.80;99.90
34574;DHT22;20809;49.594;8.734;2022-07-29T17:47:00;20.80;99.90
34574;DHT22;20809;49.594;8.734;2022-07-29T17:50:01;21.00;99.90
34574;DHT22;20809;49.594;8.734;2022-07-29T17:53:03;21.10;99.90
34574;DHT22;20809;49.594;8.734;2022-07-29T17:56:04;21.30;99.90
34574;DHT22;20809;49.594;8.734;2022-07-29T17:59:05;21.30;99.90
34574;DHT22;20809;49.594;8.734;2022-07-29T18:02:07;21.10;99.90
34574;DHT22;20809;49.594;8.734;2022-07-29T18:05:09;20.90;99.90
34574;DHT22;20809;49.594;8.734;2022-07-29T18:08:09;21.00;99.90
34574;DHT22;20809;49.594;8.734;2022-07-29T18:11:10;20.90;99.90
34574;DHT22;20809;49.594;8.734;2022-07-29T18:14:11;20.70;99.90
34574;DHT22;20809;49.594;8.734;2022-07-29T18:17:13;20.60;99.90
34574;DHT22;20809;49.594;8.734;2022-07-29T18:23:48;20.50;99.90
34574;DHT22;20809;49.594;8.734;2022-07-29T18:26:50;20.60;99.90
34574;DHT22;20809;49.594;8.734;2022-07-29T18:29:54;20.60;99.90
34574;DHT22;20809;49.594;8.734;2022-07-29T18:32:55;20.70;99.90
34574;DHT22;20809;49.594;8.734;2022-07-29T18:35:56;20.70;99.90
34574;DHT22;20809;49.594;8.734;2022-07-29T18:38:57;20.70;99.90
34574;DHT22;20809;49.594;8.734;2022-07-29T18:42:01;20.60;99.90
34574;DHT22;20809;49.594;8.734;2022-07-29T18:45:02;20.50;99.90
34574;DHT22;20809;49.594;8.734;2022-07-29T18:48:03;20.50;99.90
34574;DHT22;20809;49.594;8.734;2022-07-29T18:51:04;20.40;99.90
34574;DHT22;20809;49.594;8.734;2022-07-29T18:54:05;20.30;99.90
34574;DHT22;20809;49.594;8.734;2022-07-29T18:57:06;20.10;99.90
34574;DHT22;20809;49.594;8.734;2022-07-29T19:00:07;19.90;99.90
34574;DHT22;20809;49.594;8.734;2022-07-29T19:03:08;19.90;99.90
34574;DHT22;20809;49.594;8.734;2022-07-29T19:06:09;19.90;99.90
34574;DHT22;20809;49.594;8.734;2022-07-29T19:09:10;19.80;99.90
34574;DHT22;20809;49.594;8.734;2022-07-29T19:12:11;19.80;99.90
34574;DHT22;20809;49.594;8.734;2022-07-29T19:15:12;19.80;99.90
34574;DHT22;20809;49.594;8.734;2022-07-29T19:18:13;19.90;99.90
34574;DHT22;20809;49.594;8.734;2022-07-29T19:21:14;19.80;99.90
34574;DHT22;20809;49.594;8.734;2022-07-29T19:24:14;19.60;99.90
34574;DHT22;20809;49.594;8.734;2022-07-29T19:27:15;19.50;99.90
34574;DHT22;20809;49.594;8.734;2022-07-29T19:30:16;19.50;99.90
34574;DHT22;20809;49.594;8.734;2022-07-29T19:33:18;19.50;99.90
34574;DHT22;20809;49.594;8.734;2022-07-29T19:36:18;19.40;99.90
34574;DHT22;20809;49.594;8.734;2022-07-29T19:39:20;19.20;99.90
34574;DHT22;20809;49.594;8.734;2022-07-29T19:42:20;19.10;99.90
34574;DHT22;20809;49.594;8.734;2022-07-29T19:45:23;19.10;99.90
34574;DHT22;20809;49.594;8.734;2022-07-29T19:48:24;19.10;99.90
34574;DHT22;20809;49.594;8.734;2022-07-29T19:51:25;19.10;99.90
34574;DHT22;20809;49.594;8.734;2022-07-29T19:54:26;19.20;99.90
34574;DHT22;20809;49.594;8.734;2022-07-29T19:57:27;19.20;99.90
34574;DHT22;20809;49.594;8.734;2022-07-29T20:00:28;19.30;99.90
34574;DHT22;20809;49.594;8.734;2022-07-29T20:03:28;19.30;99.90
34574;DHT22;20809;49.594;8.734;2022-07-29T20:06:29;19.40;99.90
34574;DHT22;20809;49.594;8.734;2022-07-29T20:09:30;19.40;99.90
34574;DHT22;20809;49.594;8.734;2022-07-29T20:12:31;19.40;99.90
34574;DHT22;20809;49.594;8.734;2022-07-29T20:15:32;19.40;99.90
34574;DHT22;20809;49.594;8.734;2022-07-29T20:18:33;19.40;99.90
34574;DHT22;20809;49.594;8.734;2022-07-29T20:21:34;19.40;99.90
34574;DHT22;20809;49.594;8.734;2022-07-29T20:24:35;19.40;99.90
34574;DHT22;20809;49.594;8.734;2022-07-29T20:27:39;19.50;99.90
34574;DHT22;20809;49.594;8.734;2022-07-29T20:30:40;19.50;99.90
34574;DHT22;20809;49.594;8.734;2022-07-29T20:33:41;19.50;99.90
34574;DHT22;20809;49.594;8.734;2022-07-29T20:36:42;19.60;99.90
34574;DHT22;20809;49.594;8.734;2022-07-29T20:39:43;19.50;99.90
34574;DHT22;20809;49.594;8.734;2022-07-29T20:42:47;19.60;99.90
34574;DHT22;20809;49.594;8.734;2022-07-29T20:45:48;19.50;99.90
34574;DHT22;20809;49.594;8.734;2022-07-29T20:48:48;19.30;99.90
34574;DHT22;20809;49.594;8.734;2022-07-29T20:51:49;19.10;99.90
34574;DHT22;20809;49.594;8.734;2022-07-29T20:54:50;19.10;99.90
34574;DHT22;20809;49.594;8.734;2022-07-29T20:57:51;19.10;99.90
34574;DHT22;20809;49.594;8.734;2022-07-29T21:00:51;19.20;99.90
34574;DHT22;20809;49.594;8.734;2022-07-29T21:03:52;19.30;99.90
34574;DHT22;20809;49.594;8.734;2022-07-29T21:06:53;19.40;99.90
34574;DHT22;20809;49.594;8.734;2022-07-29T21:09:53;19.40;99.90
34574;DHT22;20809;49.594;8.734;2022-07-29T21:12:54;19.30;99.90
34574;DHT22;20809;49.594;8.734;2022-07-29T21:16:21;19.20;99.90
34574;DHT22;20809;49.594;8.734;2022-07-29T21:19:24;19.20;99.90
34574;DHT22;20809;49.594;8.734;2022-07-29T21:22:25;19.30;99.90
34574;DHT22;20809;49.594;8.734;2022-07-29T21:25:26;19.20;99.90
34574;DHT22;20809;49.594;8.734;2022-07-29T21:28:27;19.20;99.90
34574;DHT22;20809;49.594;8.734;2022-07-29T21:31:29;19.10;99.90
34574;DHT22;20809;49.594;8.734;2022-07-29T21:34:31;19.10;99.90
34574;DHT22;20809;49.594;8.734;2022-07-29T21:37:31;18.90;99.90
34574;DHT22;20809;49.594;8.734;2022-07-29T21:40:32;18.90;99.90
34574;DHT22;20809;49.594;8.734;2022-07-29T21:43:33;18.90;99.90